Forest Knolls, Pennsylvania
Current Conditions -  °F | °C
As of 10:53 PM on Wednesday 17 Dec 2014 (Local Time) from KLNS Reporting Station
Overcast Overcast  
Wind Chill: 26°   Ceiling: 3900
Heat Index: 36°   Visibility: 10mi
Dew Point: 23°   Wind: 16mph
Humidity: 59%   Direction: 290°WNW
Pressure: 30"   Gusts: 24mph
Location:  40.0642°N, 76.4378°W
Report Text: KLNS 180353Z 29014G21KT 10SM OVC039 02/M05 A3000 RMK AO2 SLP162 T00221050
Loading
Personal Weather Stations






























Interactive Weather Map New forecast layout! Learn more

10-Day Weather Forecast

Advertisements
Track Severe Weather on mobile